aviador You're here:

UKDE Decoded Metar

MOKRAYA in UKRAINE
Report Time2018-05-26 15:30:00
UTC Time2018-05-26 15:51:10
Flight Rules vfr VFR
Wind050° at 14 kt
W.Decomp.*RWY 02: 12.6 kt HW 6.1 kt RCW
W.Rank050° ranks 4
Current wind is above 050° avg. (7.5)
Visibility9999 m
Phenomena:N/A
Clouds:N/A
Expected CloudBase > 7,200 ft AGL from Temp-Dew spread
CeilingNone
Temp21°C (ISA +7)
Dew Point03°C (31% RH)
AAT14.5°C
QNH1022 hPa
Density Alt961 ft
Elevation371 ft
Report Wrong Elevation
Raw Report
UKDE 261530Z 05007MPS 010V090 CAVOK 21/03 Q1022 R02L/////// TEMPO
09014G19MPS=

Extra information for UKDE:More info

Metar Taf Metar & Taf Last 4 Metars F.Rules Stats Wind Profile Meteogram Temp Stats Airport Information Weather charts Add Link Nearby VenuesMetar ALERT Operation Metar Decoded Social comments